sensor_id;sensor_type;location;lat;lon;timestamp;temperature;humidity
69082;DHT22;69029;51.986;5.760;2023-06-22T00:00:59;19.70;91.90
69082;DHT22;69029;51.986;5.760;2023-06-22T00:03:25;19.70;90.90
69082;DHT22;69029;51.986;5.760;2023-06-22T00:05:51;19.60;86.40
69082;DHT22;69029;51.986;5.760;2023-06-22T00:08:18;19.60;94.50
69082;DHT22;69029;51.986;5.760;2023-06-22T00:10:44;19.50;93.30
69082;DHT22;69029;51.986;5.760;2023-06-22T00:13:11;19.50;94.00
69082;DHT22;69029;51.986;5.760;2023-06-22T00:15:37;19.40;87.60
69082;DHT22;69029;51.986;5.760;2023-06-22T00:18:04;19.40;92.60
69082;DHT22;69029;51.986;5.760;2023-06-22T00:20:30;19.50;88.50
69082;DHT22;69029;51.986;5.760;2023-06-22T00:22:57;19.40;87.00
69082;DHT22;69029;51.986;5.760;2023-06-22T00:25:23;19.40;89.40
69082;DHT22;69029;51.986;5.760;2023-06-22T00:27:49;19.30;78.50
69082;DHT22;69029;51.986;5.760;2023-06-22T00:30:16;19.30;93.20
69082;DHT22;69029;51.986;5.760;2023-06-22T00:32:43;19.20;92.50
69082;DHT22;69029;51.986;5.760;2023-06-22T00:35:09;19.20;94.00
69082;DHT22;69029;51.986;5.760;2023-06-22T00:37:36;19.10;89.80
69082;DHT22;69029;51.986;5.760;2023-06-22T00:40:02;19.00;87.30
69082;DHT22;69029;51.986;5.760;2023-06-22T00:42:30;19.00;97.40
69082;DHT22;69029;51.986;5.760;2023-06-22T00:44:56;19.00;92.40
69082;DHT22;69029;51.986;5.760;2023-06-22T00:47:21;19.00;95.90
69082;DHT22;69029;51.986;5.760;2023-06-22T00:49:48;18.90;86.90
69082;DHT22;69029;51.986;5.760;2023-06-22T00:52:17;18.90;94.60
69082;DHT22;69029;51.986;5.760;2023-06-22T00:54:47;18.80;94.90
69082;DHT22;69029;51.986;5.760;2023-06-22T00:57:14;18.70;96.90
69082;DHT22;69029;51.986;5.760;2023-06-22T00:59:44;18.70;92.10
69082;DHT22;69029;51.986;5.760;2023-06-22T01:02:10;18.60;93.60
69082;DHT22;69029;51.986;5.760;2023-06-22T01:04:37;18.60;94.00
69082;DHT22;69029;51.986;5.760;2023-06-22T01:10:14;18.50;93.60
69082;DHT22;69029;51.986;5.760;2023-06-22T01:13:01;18.50;95.90
69082;DHT22;69029;51.986;5.760;2023-06-22T01:15:41;18.40;99.50
69082;DHT22;69029;51.986;5.760;2023-06-22T01:18:08;18.40;99.90
69082;DHT22;69029;51.986;5.760;2023-06-22T01:20:35;18.30;99.90
69082;DHT22;69029;51.986;5.760;2023-06-22T01:23:09;18.30;97.10
69082;DHT22;69029;51.986;5.760;2023-06-22T01:25:53;18.20;94.90
69082;DHT22;69029;51.986;5.760;2023-06-22T01:28:50;18.20;99.90
69082;DHT22;69029;51.986;5.760;2023-06-22T01:31:16;18.10;99.90
69082;DHT22;69029;51.986;5.760;2023-06-22T01:33:47;18.10;99.90
69082;DHT22;69029;51.986;5.760;2023-06-22T01:36:15;18.10;99.90
69082;DHT22;69029;51.986;5.760;2023-06-22T01:38:42;18.00;99.20
69082;DHT22;69029;51.986;5.760;2023-06-22T01:41:09;18.00;99.80
69082;DHT22;69029;51.986;5.760;2023-06-22T01:43:35;18.00;99.90
69082;DHT22;69029;51.986;5.760;2023-06-22T01:46:02;18.00;99.90
69082;DHT22;69029;51.986;5.760;2023-06-22T01:48:28;18.00;99.90
69082;DHT22;69029;51.986;5.760;2023-06-22T01:50:54;17.90;96.40
69082;DHT22;69029;51.986;5.760;2023-06-22T01:53:21;17.90;99.90
69082;DHT22;69029;51.986;5.760;2023-06-22T01:55:47;17.80;99.90
69082;DHT22;69029;51.986;5.760;2023-06-22T01:58:13;17.80;99.90
69082;DHT22;69029;51.986;5.760;2023-06-22T02:00:42;17.80;99.90
69082;DHT22;69029;51.986;5.760;2023-06-22T02:03:19;17.70;99.90
69082;DHT22;69029;51.986;5.760;2023-06-22T02:05:49;17.70;99.90
69082;DHT22;69029;51.986;5.760;2023-06-22T02:08:26;17.70;95.10
69082;DHT22;69029;51.986;5.760;2023-06-22T02:10:54;17.70;99.90
69082;DHT22;69029;51.986;5.760;2023-06-22T02:13:21;17.60;99.90
69082;DHT22;69029;51.986;5.760;2023-06-22T02:15:47;17.60;99.90
69082;DHT22;69029;51.986;5.760;2023-06-22T02:18:13;17.60;99.90
69082;DHT22;69029;51.986;5.760;2023-06-22T02:20:39;17.50;99.90
69082;DHT22;69029;51.986;5.760;2023-06-22T02:23:06;17.50;99.90
69082;DHT22;69029;51.986;5.760;2023-06-22T02:25:33;17.50;99.90
69082;DHT22;69029;51.986;5.760;2023-06-22T02:27:58;17.50;99.90
69082;DHT22;69029;51.986;5.760;2023-06-22T02:30:24;17.40;99.90
69082;DHT22;69029;51.986;5.760;2023-06-22T02:32:50;17.40;99.90
69082;DHT22;69029;51.986;5.760;2023-06-22T02:35:27;17.40;99.90
69082;DHT22;69029;51.986;5.760;2023-06-22T02:37:59;17.30;99.90
69082;DHT22;69029;51.986;5.760;2023-06-22T02:40:26;17.30;99.90
69082;DHT22;69029;51.986;5.760;2023-06-22T02:42:52;17.30;99.90
69082;DHT22;69029;51.986;5.760;2023-06-22T02:45:18;17.30;99.90
69082;DHT22;69029;51.986;5.760;2023-06-22T02:47:44;17.30;99.90
69082;DHT22;69029;51.986;5.760;2023-06-22T02:50:10;17.20;99.90
69082;DHT22;69029;51.986;5.760;2023-06-22T02:52:36;17.20;99.90
69082;DHT22;69029;51.986;5.760;2023-06-22T02:55:01;17.20;99.90
69082;DHT22;69029;51.986;5.760;2023-06-22T02:57:27;17.10;99.90
69082;DHT22;69029;51.986;5.760;2023-06-22T02:59:53;17.10;99.90
69082;DHT22;69029;51.986;5.760;2023-06-22T03:02:18;17.10;99.90
69082;DHT22;69029;51.986;5.760;2023-06-22T03:04:47;17.10;99.90
69082;DHT22;69029;51.986;5.760;2023-06-22T03:07:15;17.10;99.90
69082;DHT22;69029;51.986;5.760;2023-06-22T03:09:41;17.10;99.90
69082;DHT22;69029;51.986;5.760;2023-06-22T03:12:07;17.00;99.90
69082;DHT22;69029;51.986;5.760;2023-06-22T03:14:33;17.00;99.90
69082;DHT22;69029;51.986;5.760;2023-06-22T03:16:59;17.10;99.90
69082;DHT22;69029;51.986;5.760;2023-06-22T03:19:28;17.00;99.90
69082;DHT22;69029;51.986;5.760;2023-06-22T03:21:55;17.00;99.90
69082;DHT22;69029;51.986;5.760;2023-06-22T03:24:20;17.00;99.90
69082;DHT22;69029;51.986;5.760;2023-06-22T03:26:46;16.90;99.90
69082;DHT22;69029;51.986;5.760;2023-06-22T03:29:12;16.90;99.90
69082;DHT22;69029;51.986;5.760;2023-06-22T03:31:38;16.90;99.90
69082;DHT22;69029;51.986;5.760;2023-06-22T03:34:03;16.90;99.90
69082;DHT22;69029;51.986;5.760;2023-06-22T03:36:29;16.90;99.90
69082;DHT22;69029;51.986;5.760;2023-06-22T03:38:55;16.80;99.90
69082;DHT22;69029;51.986;5.760;2023-06-22T03:41:21;16.80;99.90
69082;DHT22;69029;51.986;5.760;2023-06-22T03:43:46;16.80;99.90
69082;DHT22;69029;51.986;5.760;2023-06-22T03:46:13;16.80;99.90
69082;DHT22;69029;51.986;5.760;2023-06-22T03:48:38;16.80;99.90
69082;DHT22;69029;51.986;5.760;2023-06-22T03:51:04;16.80;99.90
69082;DHT22;69029;51.986;5.760;2023-06-22T03:53:30;16.80;99.90
69082;DHT22;69029;51.986;5.760;2023-06-22T03:55:56;16.70;99.90
69082;DHT22;69029;51.986;5.760;2023-06-22T03:58:21;16.70;99.90
69082;DHT22;69029;51.986;5.760;2023-06-22T04:00:48;16.70;99.90
69082;DHT22;69029;51.986;5.760;2023-06-22T04:03:15;16.70;99.90
69082;DHT22;69029;51.986;5.760;2023-06-22T04:05:41;16.70;99.90
69082;DHT22;69029;51.986;5.760;2023-06-22T04:08:07;16.70;99.90
69082;DHT22;69029;51.986;5.760;2023-06-22T04:10:33;16.70;99.90
69082;DHT22;69029;51.986;5.760;2023-06-22T04:12:59;16.60;99.90
69082;DHT22;69029;51.986;5.760;2023-06-22T04:15:24;16.60;99.90
69082;DHT22;69029;51.986;5.760;2023-06-22T04:17:50;16.70;99.90
69082;DHT22;69029;51.986;5.760;2023-06-22T04:20:15;16.60;99.90
69082;DHT22;69029;51.986;5.760;2023-06-22T04:22:41;16.70;99.90
69082;DHT22;69029;51.986;5.760;2023-06-22T04:25:07;16.60;99.90
69082;DHT22;69029;51.986;5.760;2023-06-22T04:27:33;16.70;99.90
69082;DHT22;69029;51.986;5.760;2023-06-22T04:30:06;16.70;99.90
69082;DHT22;69029;51.986;5.760;2023-06-22T04:32:35;16.70;99.90
69082;DHT22;69029;51.986;5.760;2023-06-22T04:35:05;16.70;99.90
69082;DHT22;69029;51.986;5.760;2023-06-22T04:37:32;16.80;99.90
69082;DHT22;69029;51.986;5.760;2023-06-22T04:39:57;16.80;99.90
69082;DHT22;69029;51.986;5.760;2023-06-22T04:42:25;16.90;99.90
69082;DHT22;69029;51.986;5.760;2023-06-22T04:44:51;16.90;99.90
69082;DHT22;69029;51.986;5.760;2023-06-22T04:47:17;16.90;99.90
69082;DHT22;69029;51.986;5.760;2023-06-22T04:49:42;17.00;99.90
69082;DHT22;69029;51.986;5.760;2023-06-22T04:52:11;17.00;99.90
69082;DHT22;69029;51.986;5.760;2023-06-22T04:54:38;17.10;99.90
69082;DHT22;69029;51.986;5.760;2023-06-22T04:57:06;17.10;99.90
69082;DHT22;69029;51.986;5.760;2023-06-22T04:59:36;17.10;99.90
69082;DHT22;69029;51.986;5.760;2023-06-22T05:02:05;17.20;99.90
69082;DHT22;69029;51.986;5.760;2023-06-22T05:04:32;17.20;99.90
69082;DHT22;69029;51.986;5.760;2023-06-22T05:06:58;17.30;99.90
69082;DHT22;69029;51.986;5.760;2023-06-22T05:09:24;17.30;99.90
69082;DHT22;69029;51.986;5.760;2023-06-22T05:11:53;17.40;99.90
69082;DHT22;69029;51.986;5.760;2023-06-22T05:14:19;17.50;99.90
69082;DHT22;69029;51.986;5.760;2023-06-22T05:16:45;17.60;99.90
69082;DHT22;69029;51.986;5.760;2023-06-22T05:19:12;17.70;99.90
69082;DHT22;69029;51.986;5.760;2023-06-22T05:21:38;17.70;99.90
69082;DHT22;69029;51.986;5.760;2023-06-22T05:24:04;17.80;99.90
69082;DHT22;69029;51.986;5.760;2023-06-22T05:26:31;17.90;99.90
69082;DHT22;69029;51.986;5.760;2023-06-22T05:28:58;17.90;99.90
69082;DHT22;69029;51.986;5.760;2023-06-22T05:31:23;18.00;99.90
69082;DHT22;69029;51.986;5.760;2023-06-22T05:33:52;18.10;99.90
69082;DHT22;69029;51.986;5.760;2023-06-22T05:36:18;18.20;99.90
69082;DHT22;69029;51.986;5.760;2023-06-22T05:38:47;18.30;99.90
69082;DHT22;69029;51.986;5.760;2023-06-22T05:41:13;18.40;99.90
69082;DHT22;69029;51.986;5.760;2023-06-22T05:43:39;18.50;99.90
69082;DHT22;69029;51.986;5.760;2023-06-22T05:46:05;18.60;99.90
69082;DHT22;69029;51.986;5.760;2023-06-22T05:48:31;18.80;99.90
69082;DHT22;69029;51.986;5.760;2023-06-22T05:50:57;18.90;99.90
69082;DHT22;69029;51.986;5.760;2023-06-22T05:53:22;19.00;99.90
69082;DHT22;69029;51.986;5.760;2023-06-22T05:55:48;19.10;99.90
69082;DHT22;69029;51.986;5.760;2023-06-22T05:58:14;19.20;99.90
69082;DHT22;69029;51.986;5.760;2023-06-22T06:00:40;19.30;99.90
69082;DHT22;69029;51.986;5.760;2023-06-22T06:03:09;19.40;99.90
69082;DHT22;69029;51.986;5.760;2023-06-22T06:05:36;19.50;99.90
69082;DHT22;69029;51.986;5.760;2023-06-22T06:08:03;19.70;99.90
69082;DHT22;69029;51.986;5.760;2023-06-22T06:10:33;19.80;99.90
69082;DHT22;69029;51.986;5.760;2023-06-22T06:12:59;20.00;99.90
69082;DHT22;69029;51.986;5.760;2023-06-22T06:15:27;20.10;99.90
69082;DHT22;69029;51.986;5.760;2023-06-22T06:17:53;20.20;99.90
69082;DHT22;69029;51.986;5.760;2023-06-22T06:20:21;20.30;99.90
69082;DHT22;69029;51.986;5.760;2023-06-22T06:22:47;20.40;99.90
69082;DHT22;69029;51.986;5.760;2023-06-22T06:25:13;20.60;99.90
69082;DHT22;69029;51.986;5.760;2023-06-22T06:27:43;20.70;99.90
69082;DHT22;69029;51.986;5.760;2023-06-22T06:30:10;20.70;99.90
69082;DHT22;69029;51.986;5.760;2023-06-22T06:32:36;20.90;99.90
69082;DHT22;69029;51.986;5.760;2023-06-22T06:35:02;21.00;99.90
69082;DHT22;69029;51.986;5.760;2023-06-22T06:37:28;21.10;99.90
69082;DHT22;69029;51.986;5.760;2023-06-22T06:39:53;21.20;99.90
69082;DHT22;69029;51.986;5.760;2023-06-22T06:42:19;21.30;99.90
69082;DHT22;69029;51.986;5.760;2023-06-22T06:44:45;21.50;99.90
69082;DHT22;69029;51.986;5.760;2023-06-22T06:47:10;21.60;99.90
69082;DHT22;69029;51.986;5.760;2023-06-22T06:49:36;21.80;99.90
69082;DHT22;69029;51.986;5.760;2023-06-22T06:52:02;21.90;99.90
69082;DHT22;69029;51.986;5.760;2023-06-22T06:54:27;22.00;99.90
69082;DHT22;69029;51.986;5.760;2023-06-22T06:56:53;22.10;99.90
69082;DHT22;69029;51.986;5.760;2023-06-22T06:59:19;22.30;99.90
69082;DHT22;69029;51.986;5.760;2023-06-22T07:01:44;22.40;99.90
69082;DHT22;69029;51.986;5.760;2023-06-22T07:04:10;22.50;99.90
69082;DHT22;69029;51.986;5.760;2023-06-22T07:06:36;22.70;99.90
69082;DHT22;69029;51.986;5.760;2023-06-22T07:09:01;22.80;99.90
69082;DHT22;69029;51.986;5.760;2023-06-22T07:11:29;22.90;99.90
69082;DHT22;69029;51.986;5.760;2023-06-22T07:13:54;22.90;99.90
69082;DHT22;69029;51.986;5.760;2023-06-22T07:16:20;23.00;99.90
69082;DHT22;69029;51.986;5.760;2023-06-22T07:18:46;23.00;99.90
69082;DHT22;69029;51.986;5.760;2023-06-22T07:21:11;23.00;99.90
69082;DHT22;69029;51.986;5.760;2023-06-22T07:23:37;23.10;99.20
69082;DHT22;69029;51.986;5.760;2023-06-22T07:26:02;23.20;99.90
69082;DHT22;69029;51.986;5.760;2023-06-22T07:28:28;23.20;99.90
69082;DHT22;69029;51.986;5.760;2023-06-22T07:30:56;23.30;96.80
69082;DHT22;69029;51.986;5.760;2023-06-22T07:33:22;23.40;95.10
69082;DHT22;69029;51.986;5.760;2023-06-22T07:35:48;23.50;97.10
69082;DHT22;69029;51.986;5.760;2023-06-22T07:38:13;23.60;95.90
69082;DHT22;69029;51.986;5.760;2023-06-22T07:40:40;23.60;91.80
69082;DHT22;69029;51.986;5.760;2023-06-22T07:43:07;23.70;94.20
69082;DHT22;69029;51.986;5.760;2023-06-22T07:45:32;23.80;92.10
69082;DHT22;69029;51.986;5.760;2023-06-22T07:48:00;23.80;90.60
69082;DHT22;69029;51.986;5.760;2023-06-22T07:50:26;23.90;91.70
69082;DHT22;69029;51.986;5.760;2023-06-22T07:52:52;24.00;92.00
69082;DHT22;69029;51.986;5.760;2023-06-22T07:55:18;24.00;90.10
69082;DHT22;69029;51.986;5.760;2023-06-22T07:57:46;24.10;89.20
69082;DHT22;69029;51.986;5.760;2023-06-22T08:00:12;24.10;86.80
69082;DHT22;69029;51.986;5.760;2023-06-22T08:02:41;24.20;87.30
69082;DHT22;69029;51.986;5.760;2023-06-22T08:05:10;24.20;84.60
69082;DHT22;69029;51.986;5.760;2023-06-22T08:07:37;24.40;86.50
69082;DHT22;69029;51.986;5.760;2023-06-22T08:10:04;24.40;83.60
69082;DHT22;69029;51.986;5.760;2023-06-22T08:12:30;24.50;84.90
69082;DHT22;69029;51.986;5.760;2023-06-22T08:14:55;24.70;84.70
69082;DHT22;69029;51.986;5.760;2023-06-22T08:17:22;24.80;83.40
69082;DHT22;69029;51.986;5.760;2023-06-22T08:19:48;24.90;81.00
69082;DHT22;69029;51.986;5.760;2023-06-22T08:22:15;25.00;81.10
69082;DHT22;69029;51.986;5.760;2023-06-22T08:24:40;25.20;79.60
69082;DHT22;69029;51.986;5.760;2023-06-22T08:27:07;25.30;78.20
69082;DHT22;69029;51.986;5.760;2023-06-22T08:29:40;25.40;78.40
69082;DHT22;69029;51.986;5.760;2023-06-22T08:32:09;25.60;76.30
69082;DHT22;69029;51.986;5.760;2023-06-22T08:34:35;25.60;73.90
69082;DHT22;69029;51.986;5.760;2023-06-22T08:37:01;25.70;73.80
69082;DHT22;69029;51.986;5.760;2023-06-22T08:39:32;25.80;73.60
69082;DHT22;69029;51.986;5.760;2023-06-22T08:41:57;25.90;72.50
69082;DHT22;69029;51.986;5.760;2023-06-22T08:44:23;26.00;72.20
69082;DHT22;69029;51.986;5.760;2023-06-22T08:46:48;26.10;73.20
69082;DHT22;69029;51.986;5.760;2023-06-22T08:49:14;26.30;71.20
69082;DHT22;69029;51.986;5.760;2023-06-22T08:51:40;26.30;68.90
69082;DHT22;69029;51.986;5.760;2023-06-22T08:54:07;26.30;68.20
69082;DHT22;69029;51.986;5.760;2023-06-22T08:56:32;26.40;67.80
69082;DHT22;69029;51.986;5.760;2023-06-22T08:58:58;26.50;67.40
69082;DHT22;69029;51.986;5.760;2023-06-22T09:01:24;26.60;67.10
69082;DHT22;69029;51.986;5.760;2023-06-22T09:03:49;26.70;66.90
69082;DHT22;69029;51.986;5.760;2023-06-22T09:06:20;26.80;65.90
69082;DHT22;69029;51.986;5.760;2023-06-22T09:08:47;26.90;64.70
69082;DHT22;69029;51.986;5.760;2023-06-22T09:11:12;27.00;65.10
69082;DHT22;69029;51.986;5.760;2023-06-22T09:13:38;27.10;65.20
69082;DHT22;69029;51.986;5.760;2023-06-22T09:16:04;27.10;64.10
69082;DHT22;69029;51.986;5.760;2023-06-22T09:18:29;27.20;64.00
69082;DHT22;69029;51.986;5.760;2023-06-22T09:20:56;27.30;63.60
69082;DHT22;69029;51.986;5.760;2023-06-22T09:23:22;27.20;63.60
69082;DHT22;69029;51.986;5.760;2023-06-22T09:25:47;27.10;63.00
69082;DHT22;69029;51.986;5.760;2023-06-22T09:28:14;27.00;61.20
69082;DHT22;69029;51.986;5.760;2023-06-22T09:30:39;26.90;62.30
69082;DHT22;69029;51.986;5.760;2023-06-22T09:33:05;26.90;62.50
69082;DHT22;69029;51.986;5.760;2023-06-22T09:35:31;26.90;62.60
69082;DHT22;69029;51.986;5.760;2023-06-22T09:37:56;27.00;63.10
69082;DHT22;69029;51.986;5.760;2023-06-22T09:40:22;27.10;62.30
69082;DHT22;69029;51.986;5.760;2023-06-22T09:42:47;27.20;61.80
69082;DHT22;69029;51.986;5.760;2023-06-22T09:45:13;27.30;61.90
69082;DHT22;69029;51.986;5.760;2023-06-22T09:47:39;27.30;62.00
69082;DHT22;69029;51.986;5.760;2023-06-22T09:50:05;27.30;62.00
69082;DHT22;69029;51.986;5.760;2023-06-22T09:52:31;27.30;62.70
69082;DHT22;69029;51.986;5.760;2023-06-22T09:54:57;27.20;62.50
69082;DHT22;69029;51.986;5.760;2023-06-22T09:57:22;27.20;62.80
69082;DHT22;69029;51.986;5.760;2023-06-22T09:59:48;27.10;62.80
69082;DHT22;69029;51.986;5.760;2023-06-22T10:02:13;27.00;62.40
69082;DHT22;69029;51.986;5.760;2023-06-22T10:04:39;27.00;63.10
69082;DHT22;69029;51.986;5.760;2023-06-22T10:07:05;26.90;63.40
69082;DHT22;69029;51.986;5.760;2023-06-22T10:09:31;26.90;63.40
69082;DHT22;69029;51.986;5.760;2023-06-22T10:11:57;26.90;63.30
69082;DHT22;69029;51.986;5.760;2023-06-22T10:14:22;26.80;63.00
69082;DHT22;69029;51.986;5.760;2023-06-22T10:16:50;26.70;63.30
69082;DHT22;69029;51.986;5.760;2023-06-22T10:19:19;26.60;63.50
69082;DHT22;69029;51.986;5.760;2023-06-22T10:21:44;26.50;64.50
69082;DHT22;69029;51.986;5.760;2023-06-22T10:24:10;26.50;64.00
69082;DHT22;69029;51.986;5.760;2023-06-22T10:26:36;26.50;65.10
69082;DHT22;69029;51.986;5.760;2023-06-22T10:29:03;26.50;65.30
69082;DHT22;69029;51.986;5.760;2023-06-22T10:31:29;26.50;65.10
69082;DHT22;69029;51.986;5.760;2023-06-22T10:33:55;26.60;64.50
69082;DHT22;69029;51.986;5.760;2023-06-22T10:36:23;26.60;64.10
69082;DHT22;69029;51.986;5.760;2023-06-22T10:38:49;26.60;64.80
69082;DHT22;69029;51.986;5.760;2023-06-22T10:41:15;26.70;64.60
69082;DHT22;69029;51.986;5.760;2023-06-22T10:43:42;26.80;64.00
69082;DHT22;69029;51.986;5.760;2023-06-22T10:46:09;26.80;64.50
69082;DHT22;69029;51.986;5.760;2023-06-22T10:48:35;26.90;64.50
69082;DHT22;69029;51.986;5.760;2023-06-22T10:51:00;27.00;64.70
69082;DHT22;69029;51.986;5.760;2023-06-22T10:53:26;27.00;64.60
69082;DHT22;69029;51.986;5.760;2023-06-22T10:55:51;27.00;64.40
69082;DHT22;69029;51.986;5.760;2023-06-22T10:58:19;27.10;63.90
69082;DHT22;69029;51.986;5.760;2023-06-22T11:00:45;27.10;63.70
69082;DHT22;69029;51.986;5.760;2023-06-22T11:03:10;27.20;64.40
69082;DHT22;69029;51.986;5.760;2023-06-22T11:05:37;27.10;63.70
69082;DHT22;69029;51.986;5.760;2023-06-22T11:08:03;27.10;64.40
69082;DHT22;69029;51.986;5.760;2023-06-22T11:10:28;27.10;64.50
69082;DHT22;69029;51.986;5.760;2023-06-22T11:12:54;27.00;65.50
69082;DHT22;69029;51.986;5.760;2023-06-22T11:15:21;27.00;65.00
69082;DHT22;69029;51.986;5.760;2023-06-22T11:17:46;27.00;66.40
69082;DHT22;69029;51.986;5.760;2023-06-22T11:20:12;27.10;65.90
69082;DHT22;69029;51.986;5.760;2023-06-22T11:22:38;27.10;66.10
69082;DHT22;69029;51.986;5.760;2023-06-22T11:25:05;27.10;66.60
69082;DHT22;69029;51.986;5.760;2023-06-22T11:27:31;27.20;66.50
69082;DHT22;69029;51.986;5.760;2023-06-22T11:29:57;27.20;65.40
69082;DHT22;69029;51.986;5.760;2023-06-22T11:32:23;27.30;66.80
69082;DHT22;69029;51.986;5.760;2023-06-22T11:34:48;27.30;66.50
69082;DHT22;69029;51.986;5.760;2023-06-22T11:37:14;27.30;68.00
69082;DHT22;69029;51.986;5.760;2023-06-22T11:39:41;27.20;66.60
69082;DHT22;69029;51.986;5.760;2023-06-22T11:42:07;27.10;66.60
69082;DHT22;69029;51.986;5.760;2023-06-22T11:44:33;27.00;67.10
69082;DHT22;69029;51.986;5.760;2023-06-22T11:46:59;26.90;65.40
69082;DHT22;69029;51.986;5.760;2023-06-22T11:49:26;26.80;65.70
69082;DHT22;69029;51.986;5.760;2023-06-22T11:51:52;26.70;65.10
69082;DHT22;69029;51.986;5.760;2023-06-22T11:54:18;26.60;66.20
69082;DHT22;69029;51.986;5.760;2023-06-22T11:56:43;26.50;66.50
69082;DHT22;69029;51.986;5.760;2023-06-22T11:59:09;26.40;66.50
69082;DHT22;69029;51.986;5.760;2023-06-22T12:01:35;26.40;69.20
69082;DHT22;69029;51.986;5.760;2023-06-22T12:04:00;26.30;70.70
69082;DHT22;69029;51.986;5.760;2023-06-22T12:06:26;26.10;71.60
69082;DHT22;69029;51.986;5.760;2023-06-22T12:08:52;26.00;72.80
69082;DHT22;69029;51.986;5.760;2023-06-22T12:11:17;26.00;73.30
69082;DHT22;69029;51.986;5.760;2023-06-22T12:13:43;25.90;73.90
69082;DHT22;69029;51.986;5.760;2023-06-22T12:16:09;25.80;73.40
69082;DHT22;69029;51.986;5.760;2023-06-22T12:18:35;25.80;74.60
69082;DHT22;69029;51.986;5.760;2023-06-22T12:21:00;25.70;74.30
69082;DHT22;69029;51.986;5.760;2023-06-22T12:23:26;25.60;81.10
69082;DHT22;69029;51.986;5.760;2023-06-22T12:25:52;25.60;76.00
69082;DHT22;69029;51.986;5.760;2023-06-22T12:28:17;25.50;79.40
69082;DHT22;69029;51.986;5.760;2023-06-22T12:30:43;25.40;79.50
69082;DHT22;69029;51.986;5.760;2023-06-22T12:33:09;25.30;83.40
69082;DHT22;69029;51.986;5.760;2023-06-22T12:35:35;25.20;86.50
69082;DHT22;69029;51.986;5.760;2023-06-22T12:38:00;25.20;81.30
69082;DHT22;69029;51.986;5.760;2023-06-22T12:40:26;25.00;84.90
69082;DHT22;69029;51.986;5.760;2023-06-22T12:42:52;25.00;88.60
69082;DHT22;69029;51.986;5.760;2023-06-22T12:45:17;24.80;81.30
69082;DHT22;69029;51.986;5.760;2023-06-22T12:47:44;24.70;79.90
69082;DHT22;69029;51.986;5.760;2023-06-22T12:50:10;24.60;93.40
69082;DHT22;69029;51.986;5.760;2023-06-22T12:52:37;24.60;88.60
69082;DHT22;69029;51.986;5.760;2023-06-22T12:55:05;24.60;90.10
69082;DHT22;69029;51.986;5.760;2023-06-22T12:57:31;24.60;91.90
69082;DHT22;69029;51.986;5.760;2023-06-22T12:59:56;24.60;94.40
69082;DHT22;69029;51.986;5.760;2023-06-22T13:02:26;24.60;88.00
69082;DHT22;69029;51.986;5.760;2023-06-22T13:04:55;24.60;95.80
69082;DHT22;69029;51.986;5.760;2023-06-22T13:07:21;24.60;92.50
69082;DHT22;69029;51.986;5.760;2023-06-22T13:09:46;24.60;93.40
69082;DHT22;69029;51.986;5.760;2023-06-22T13:12:16;24.60;96.40
69082;DHT22;69029;51.986;5.760;2023-06-22T13:14:42;24.60;87.80
69082;DHT22;69029;51.986;5.760;2023-06-22T13:17:09;24.40;91.30
69082;DHT22;69029;51.986;5.760;2023-06-22T13:19:34;24.30;93.40
69082;DHT22;69029;51.986;5.760;2023-06-22T13:22:00;24.30;92.90
69082;DHT22;69029;51.986;5.760;2023-06-22T13:24:26;24.10;94.90
69082;DHT22;69029;51.986;5.760;2023-06-22T13:26:51;24.10;98.30
69082;DHT22;69029;51.986;5.760;2023-06-22T13:29:17;24.10;96.40
69082;DHT22;69029;51.986;5.760;2023-06-22T13:31:42;24.10;99.90
69082;DHT22;69029;51.986;5.760;2023-06-22T13:34:08;24.00;99.90
69082;DHT22;69029;51.986;5.760;2023-06-22T13:36:34;24.00;99.90
69082;DHT22;69029;51.986;5.760;2023-06-22T13:38:59;24.00;99.90
69082;DHT22;69029;51.986;5.760;2023-06-22T13:41:25;23.90;98.80
69082;DHT22;69029;51.986;5.760;2023-06-22T13:43:51;23.80;99.90
69082;DHT22;69029;51.986;5.760;2023-06-22T13:46:17;23.80;99.90
69082;DHT22;69029;51.986;5.760;2023-06-22T13:48:42;23.80;99.90
69082;DHT22;69029;51.986;5.760;2023-06-22T13:51:08;23.80;99.90
69082;DHT22;69029;51.986;5.760;2023-06-22T13:53:33;23.80;99.90
69082;DHT22;69029;51.986;5.760;2023-06-22T13:55:59;23.80;99.90
69082;DHT22;69029;51.986;5.760;2023-06-22T13:58:25;23.70;99.90
69082;DHT22;69029;51.986;5.760;2023-06-22T14:00:50;23.70;99.90
69082;DHT22;69029;51.986;5.760;2023-06-22T14:03:16;23.70;99.90
69082;DHT22;69029;51.986;5.760;2023-06-22T14:05:42;23.70;99.90
69082;DHT22;69029;51.986;5.760;2023-06-22T14:08:08;23.60;99.90
69082;DHT22;69029;51.986;5.760;2023-06-22T14:10:34;23.60;99.90
69082;DHT22;69029;51.986;5.760;2023-06-22T14:13:00;23.60;99.90
69082;DHT22;69029;51.986;5.760;2023-06-22T14:15:26;23.50;99.90
69082;DHT22;69029;51.986;5.760;2023-06-22T14:17:59;23.60;99.90
69082;DHT22;69029;51.986;5.760;2023-06-22T14:20:25;23.50;99.90
69082;DHT22;69029;51.986;5.760;2023-06-22T14:22:53;23.50;99.90
69082;DHT22;69029;51.986;5.760;2023-06-22T14:25:25;23.40;99.90
69082;DHT22;69029;51.986;5.760;2023-06-22T14:27:50;23.50;99.90
69082;DHT22;69029;51.986;5.760;2023-06-22T14:30:16;23.40;99.90
69082;DHT22;69029;51.986;5.760;2023-06-22T14:32:43;23.40;99.90
69082;DHT22;69029;51.986;5.760;2023-06-22T14:35:10;23.30;99.90
69082;DHT22;69029;51.986;5.760;2023-06-22T14:37:36;23.30;99.90
69082;DHT22;69029;51.986;5.760;2023-06-22T14:40:02;23.20;99.90
69082;DHT22;69029;51.986;5.760;2023-06-22T14:42:28;23.30;99.90
69082;DHT22;69029;51.986;5.760;2023-06-22T14:44:55;23.30;99.90
69082;DHT22;69029;51.986;5.760;2023-06-22T14:47:21;23.20;99.90
69082;DHT22;69029;51.986;5.760;2023-06-22T14:49:48;23.10;99.90
69082;DHT22;69029;51.986;5.760;2023-06-22T14:52:13;23.10;99.90
69082;DHT22;69029;51.986;5.760;2023-06-22T14:54:39;23.10;99.90
69082;DHT22;69029;51.986;5.760;2023-06-22T14:57:05;23.10;99.90
69082;DHT22;69029;51.986;5.760;2023-06-22T14:59:30;23.00;99.90
69082;DHT22;69029;51.986;5.760;2023-06-22T15:01:56;23.00;99.90
69082;DHT22;69029;51.986;5.760;2023-06-22T15:04:22;22.90;99.90
69082;DHT22;69029;51.986;5.760;2023-06-22T15:06:47;22.90;99.90
69082;DHT22;69029;51.986;5.760;2023-06-22T15:09:13;22.90;99.90
69082;DHT22;69029;51.986;5.760;2023-06-22T15:11:39;22.90;99.90
69082;DHT22;69029;51.986;5.760;2023-06-22T15:14:04;22.80;99.90
69082;DHT22;69029;51.986;5.760;2023-06-22T15:16:30;22.80;99.90
69082;DHT22;69029;51.986;5.760;2023-06-22T15:18:56;22.70;99.90
69082;DHT22;69029;51.986;5.760;2023-06-22T15:21:21;22.60;99.90
69082;DHT22;69029;51.986;5.760;2023-06-22T15:23:47;22.60;99.90
69082;DHT22;69029;51.986;5.760;2023-06-22T15:26:13;22.60;99.90
69082;DHT22;69029;51.986;5.760;2023-06-22T15:28:39;22.50;99.90